Terminal Aerodrome Forecast
Issued by NWS Buffalo, NY

Home | Current Version | Previous Version | Text Only | Print | Product List | Glossary On
Versions: 1 2 3 4 5 6 7 8 9 10 11 12 13 14 15 16 17 18 19 20 21 22 23 24 25 26 27 28 29 30 31 32 33
000
FTUS41 KBUF 191100
TAFBUF
TAF
KBUF 191135Z 1912/2012 08010KT P6SM BKN250
     FM191800 10012G20KT P6SM BKN250
     FM200000 11012G22KT P6SM BKN120
     FM200400 13016G26KT 6SM -RA OVC060
     FM200800 14018G30KT 6SM -RA OVC035=

USA.gov is the U.S. government's official web portal to all federal, state and local government web resources and services.